createdAt,value
2023-12-03T00:01:53.716Z,99.90
2023-12-03T00:06:59.294Z,99.90
2023-12-03T00:12:02.060Z,99.90
2023-12-03T00:17:05.008Z,99.90
2023-12-03T00:22:08.078Z,99.90
2023-12-03T00:27:10.152Z,99.90
2023-12-03T00:32:12.131Z,99.90
2023-12-03T00:37:14.207Z,99.90
2023-12-03T00:42:16.344Z,99.90
2023-12-03T00:47:20.245Z,99.90
2023-12-03T00:52:22.199Z,99.90
2023-12-03T00:57:25.549Z,99.90
2023-12-03T01:02:28.226Z,99.90
2023-12-03T01:07:30.822Z,99.90
2023-12-03T01:12:33.189Z,99.90
2023-12-03T01:17:36.117Z,99.90
2023-12-03T01:22:38.382Z,99.90
2023-12-03T01:27:40.743Z,99.90
2023-12-03T01:32:42.768Z,99.90
2023-12-03T01:37:45.055Z,99.90
2023-12-03T01:42:47.383Z,99.90
2023-12-03T01:47:50.674Z,99.90
2023-12-03T01:52:53.027Z,99.90
2023-12-03T01:57:55.712Z,99.90
2023-12-03T02:02:57.915Z,99.90
2023-12-03T02:08:01.827Z,99.90
2023-12-03T02:13:05.054Z,99.90
2023-12-03T02:18:07.949Z,99.90
2023-12-03T02:23:10.181Z,99.90
2023-12-03T02:28:13.341Z,99.90
2023-12-03T02:33:15.870Z,99.90
2023-12-03T02:38:18.141Z,99.90
2023-12-03T02:43:20.151Z,99.90
2023-12-03T02:48:22.588Z,99.90
2023-12-03T02:53:24.883Z,99.90
2023-12-03T02:58:27.203Z,99.90
2023-12-03T03:03:29.538Z,99.90
2023-12-03T03:08:32.469Z,99.90
2023-12-03T03:13:36.498Z,99.90
2023-12-03T03:18:38.486Z,99.90
2023-12-03T03:23:40.452Z,99.90
2023-12-03T03:28:42.954Z,99.90
2023-12-03T03:33:45.274Z,99.90
2023-12-03T03:38:47.598Z,99.90
2023-12-03T03:43:50.106Z,99.90
2023-12-03T03:48:53.335Z,99.90
2023-12-03T03:53:55.386Z,99.90
2023-12-03T03:58:58.629Z,99.90
2023-12-03T04:04:01.487Z,99.90
2023-12-03T04:09:05.782Z,99.90
2023-12-03T04:14:08.949Z,99.90
2023-12-03T04:19:12.561Z,99.90
2023-12-03T04:24:14.635Z,99.90
2023-12-03T04:29:17.375Z,99.90
2023-12-03T04:34:19.761Z,99.90
2023-12-03T04:39:21.735Z,99.90
2023-12-03T04:44:24.088Z,99.90
2023-12-03T04:49:26.589Z,99.90
2023-12-03T04:54:28.730Z,99.90
2023-12-03T04:59:31.038Z,99.90
2023-12-03T05:04:33.996Z,99.90
2023-12-03T05:09:41.721Z,99.90
2023-12-03T05:14:43.793Z,99.90
2023-12-03T05:19:46.672Z,99.90
2023-12-03T05:24:51.923Z,99.90
2023-12-03T05:29:54.233Z,99.90
2023-12-03T05:34:56.218Z,99.90
2023-12-03T05:39:58.175Z,99.90
2023-12-03T05:45:00.735Z,99.90
2023-12-03T05:50:04.008Z,99.90
2023-12-03T05:55:06.991Z,99.90
2023-12-03T06:00:10.041Z,99.90
2023-12-03T06:05:11.963Z,99.90
2023-12-03T06:10:15.132Z,99.90
2023-12-03T06:15:17.141Z,99.90
2023-12-03T06:20:19.051Z,99.90
2023-12-03T06:25:21.540Z,99.90
2023-12-03T06:30:25.326Z,99.90
2023-12-03T06:35:27.879Z,99.90
2023-12-03T06:40:29.974Z,99.90
2023-12-03T06:45:32.352Z,99.90
2023-12-03T06:50:35.283Z,99.90
2023-12-03T06:55:37.645Z,99.90
2023-12-03T07:00:42.715Z,99.90
2023-12-03T07:05:45.138Z,99.90
2023-12-03T07:10:47.100Z,99.90
2023-12-03T07:15:49.493Z,99.90
2023-12-03T07:20:51.556Z,99.90
2023-12-03T07:25:54.959Z,99.90
2023-12-03T07:30:56.963Z,99.90
2023-12-03T07:35:58.894Z,99.90
2023-12-03T07:41:01.503Z,99.90
2023-12-03T07:46:07.092Z,99.90
2023-12-03T07:51:13.150Z,99.90
2023-12-03T07:56:16.866Z,99.90
2023-12-03T08:01:20.771Z,99.90
2023-12-03T08:06:23.202Z,99.90
2023-12-03T08:11:34.067Z,99.90
2023-12-03T08:16:36.350Z,99.90
2023-12-03T08:21:40.041Z,99.90
2023-12-03T08:26:46.622Z,99.90
2023-12-03T08:31:51.173Z,99.90
2023-12-03T08:36:54.902Z,99.70
2023-12-03T08:41:59.760Z,99.40
2023-12-03T08:47:05.369Z,97.10
2023-12-03T08:52:10.105Z,95.80
2023-12-03T08:57:12.792Z,93.80
2023-12-03T09:02:14.788Z,93.60
2023-12-03T09:07:18.912Z,94.70
2023-12-03T09:12:21.937Z,95.40
2023-12-03T09:17:24.331Z,95.70
2023-12-03T09:22:27.071Z,96.30
2023-12-03T09:27:31.246Z,96.90
2023-12-03T09:32:33.569Z,97.10
2023-12-03T09:37:35.502Z,97.80
2023-12-03T09:42:40.669Z,97.00
2023-12-03T09:47:50.118Z,95.00
2023-12-03T09:52:58.033Z,93.80
2023-12-03T09:58:00.960Z,92.80
2023-12-03T10:03:03.645Z,92.30
2023-12-03T10:08:05.597Z,92.00
2023-12-03T10:13:08.884Z,91.30
2023-12-03T10:18:11.040Z,91.00
2023-12-03T10:23:15.881Z,90.40
2023-12-03T10:28:19.376Z,90.50
2023-12-03T10:33:22.218Z,90.10
2023-12-03T10:38:24.433Z,89.00
2023-12-03T10:43:26.814Z,89.10
2023-12-03T10:48:31.804Z,88.60
2023-12-03T10:53:34.917Z,87.80
2023-12-03T10:58:38.965Z,88.30
2023-12-03T11:03:56.523Z,87.60
2023-12-03T11:09:01.301Z,87.70
2023-12-03T11:14:06.566Z,87.60
2023-12-03T11:19:14.680Z,88.00
2023-12-03T11:24:52.433Z,87.60
2023-12-03T11:29:56.303Z,86.90
2023-12-03T11:35:04.358Z,86.50
2023-12-03T11:40:13.109Z,87.70
2023-12-03T11:45:27.724Z,86.00
2023-12-03T11:50:32.670Z,85.40
2023-12-03T11:55:41.245Z,87.00
2023-12-03T12:00:43.838Z,87.30
2023-12-03T12:05:53.389Z,88.40
2023-12-03T12:11:11.793Z,88.10
2023-12-03T12:16:14.211Z,87.90
2023-12-03T12:32:04.160Z,89.40
2023-12-03T12:37:07.135Z,90.20
2023-12-03T12:42:45.497Z,90.20
2023-12-03T12:47:48.529Z,90.60
2023-12-03T12:52:56.674Z,91.20
2023-12-03T12:58:26.613Z,91.60
2023-12-03T13:03:29.062Z,92.10
2023-12-03T13:08:33.330Z,92.50
2023-12-03T13:13:43.738Z,92.40
2023-12-03T13:18:54.870Z,92.80
2023-12-03T13:24:02.576Z,93.10
2023-12-03T13:29:34.781Z,93.60
2023-12-03T13:34:37.192Z,94.00
2023-12-03T13:39:39.308Z,94.30
2023-12-03T13:44:41.770Z,93.90
2023-12-03T13:50:20.624Z,93.40
2023-12-03T13:55:22.568Z,93.80
2023-12-03T14:00:24.703Z,94.20
2023-12-03T14:05:31.129Z,94.00
2023-12-03T14:10:42.993Z,94.00
2023-12-03T14:15:47.917Z,94.00
2023-12-03T14:20:57.355Z,94.20
2023-12-03T14:26:00.914Z,94.20
2023-12-03T14:31:04.287Z,94.50
2023-12-03T14:36:08.838Z,94.50
2023-12-03T14:41:11.054Z,94.60
2023-12-03T14:46:20.434Z,94.80
2023-12-03T14:51:27.181Z,94.90
2023-12-03T14:56:41.673Z,95.00
2023-12-03T15:01:46.592Z,95.50
2023-12-03T15:13:50.316Z,97.50
2023-12-03T15:18:52.800Z,96.90
2023-12-03T15:23:55.494Z,96.60
2023-12-03T15:28:58.596Z,96.70
2023-12-03T15:34:00.567Z,96.90
2023-12-03T15:39:03.201Z,96.90
2023-12-03T15:44:05.407Z,97.20
2023-12-03T15:49:13.386Z,97.00
2023-12-03T15:54:21.512Z,97.40
2023-12-03T15:59:24.995Z,97.70
2023-12-03T16:04:27.035Z,97.80
2023-12-03T16:09:29.930Z,97.80
2023-12-03T16:14:33.055Z,98.30
2023-12-03T16:19:36.373Z,98.90
2023-12-03T16:24:52.069Z,99.70
2023-12-03T16:29:55.218Z,99.90
2023-12-03T16:34:57.502Z,99.90
2023-12-03T16:40:00.138Z,99.90
2023-12-03T16:45:04.679Z,99.90
2023-12-03T16:50:08.277Z,99.90
2023-12-03T16:55:10.457Z,99.90
2023-12-03T17:00:12.816Z,99.90
2023-12-03T17:06:19.644Z,99.90
2023-12-03T17:11:23.800Z,99.90
2023-12-03T17:16:45.506Z,99.90
2023-12-03T17:22:13.385Z,99.80
2023-12-03T17:27:38.079Z,99.50
2023-12-03T17:32:44.444Z,99.50
2023-12-03T17:37:46.704Z,99.50
2023-12-03T17:42:48.914Z,99.90
2023-12-03T17:47:51.030Z,99.90
2023-12-03T17:52:56.830Z,99.90
2023-12-03T17:57:59.627Z,99.90
2023-12-03T18:03:15.149Z,99.90
2023-12-03T18:08:17.143Z,99.90
2023-12-03T18:13:30.437Z,99.90
2023-12-03T18:18:38.135Z,99.90
2023-12-03T18:23:46.041Z,99.90
2023-12-03T18:28:49.889Z,99.90
2023-12-03T18:33:53.401Z,99.90
2023-12-03T18:38:56.011Z,99.90
2023-12-03T18:43:58.224Z,99.90
2023-12-03T18:49:00.257Z,99.90
2023-12-03T18:54:02.645Z,99.90
2023-12-03T18:59:09.717Z,99.90
2023-12-03T19:04:15.984Z,99.90
2023-12-03T19:09:20.236Z,99.90
2023-12-03T19:14:25.527Z,99.90
2023-12-03T19:19:35.664Z,99.90
2023-12-03T19:24:40.844Z,99.90
2023-12-03T19:29:47.099Z,99.90
2023-12-03T19:34:54.105Z,99.90
2023-12-03T19:39:59.948Z,99.90
2023-12-03T19:45:03.184Z,99.90
2023-12-03T19:50:05.935Z,99.90
2023-12-03T19:55:12.776Z,99.90
2023-12-03T20:00:18.386Z,99.90
2023-12-03T20:05:22.066Z,99.90
2023-12-03T20:10:28.736Z,99.90
2023-12-03T20:15:42.112Z,99.90
2023-12-03T20:26:08.881Z,99.90
2023-12-03T20:37:02.814Z,99.90
2023-12-03T20:42:08.900Z,99.90
2023-12-03T20:47:23.613Z,99.90
2023-12-03T20:52:25.940Z,99.90
2023-12-03T20:57:27.898Z,99.90
2023-12-03T21:02:29.888Z,99.90
2023-12-03T21:07:33.366Z,99.90
2023-12-03T21:12:36.615Z,99.90
2023-12-03T21:17:45.558Z,99.90
2023-12-03T21:22:48.569Z,99.90
2023-12-03T21:28:47.797Z,99.90
2023-12-03T21:33:57.432Z,99.90
2023-12-03T21:39:07.769Z,99.90
2023-12-03T21:44:12.108Z,99.90
2023-12-03T21:49:14.246Z,99.90
2023-12-03T21:54:16.389Z,99.90
2023-12-03T21:59:19.521Z,99.90
2023-12-03T22:04:21.800Z,99.90
2023-12-03T22:09:25.216Z,99.90
2023-12-03T22:14:29.889Z,99.90
2023-12-03T22:19:33.112Z,99.90
2023-12-03T22:24:36.173Z,99.90
2023-12-03T22:29:47.740Z,99.90
2023-12-03T22:34:53.677Z,99.90
2023-12-03T22:39:56.784Z,99.90
2023-12-03T22:44:59.029Z,99.90
2023-12-03T22:50:01.443Z,99.90
2023-12-03T22:55:03.853Z,99.90
2023-12-03T23:00:11.064Z,99.90
2023-12-03T23:05:24.728Z,99.90
2023-12-03T23:10:34.665Z,99.90
2023-12-03T23:15:37.360Z,99.90
2023-12-03T23:20:39.606Z,99.90
2023-12-03T23:25:42.029Z,99.90
2023-12-03T23:30:44.413Z,99.90
2023-12-03T23:35:47.234Z,99.90
2023-12-03T23:40:50.464Z,99.90
2023-12-03T23:45:52.406Z,99.90
2023-12-03T23:50:54.429Z,99.90
2023-12-03T23:55:56.647Z,99.90
